Detalii statie Pioneer South Africa DEMO [00001DA1]

Toti senzorii

Date Solar radiation Dgt [W/mm]Precipitatii [mm]Viteza vantului [m/s]Voltaj baterie [mV]Leaf Wetness [Min]HC Air temperature [C]HC Relative humidity [%]Punctul de roua [C]
mediesumamediemaxultimatimpmedieminmaxmediemediemin
2018-10-13 15:00:00 77 0.4 0.1 0.2 6756 20.01 19.87 20.16 64.83 13 12.7
2018-10-13 16:00:00 14 0.2 0.3 1.2 6668 18.41 14.85 19.85 69.72 12.5 10.8
2018-10-13 17:00:00 0 0.2 0.7 1.5 6610 13.82 12.79 14.66 91.99 12.3 10.8
2018-10-13 18:00:00 0 0.4 0.4 0.9 6572 12.36 11.79 13 100 12.3 11.7
2018-10-13 19:00:00 0 0.4 0.7 1.3 6484 11.57 11.38 11.82 100 11.5 11.3
2018-10-13 20:00:00 0 0.4 0.2 0.5 6464 11.35 11.05 11.58 100 11.3 11
2018-10-13 21:00:00 0 0.2 0.5 0.8 6434 10.75 10.56 11.1 100 10.7 10.5
2018-10-13 22:00:00 0 0.4 0.3 0.6 6444 10.62 10.55 10.68 100 10.5 10.5
2018-10-13 23:00:00 0 0.4 0.5 0.7 6424 10.6 10.55 10.66 100 10.5 10.5
2018-10-14 00:00:00 0 0.4 0 0.3 6424 10.78 10.57 10.99 100 10.7 10.5
2018-10-14 01:00:00 0 0.4 0.1 1.1 6416 11.2 10.9 11.48 100 11.1 10.9
2018-10-14 02:00:00 0 0.2 0.5 1.9 6416 11.31 10.99 11.48 100 11.2 10.9
2018-10-14 03:00:00 0 0.4 0 0 6406 11.74 11.56 11.98 100 11.7 11.5
2018-10-14 04:00:00 0 0.4 0 0.3 6406 12.07 11.94 12.21 100 12 11.9
2018-10-14 05:00:00 0 0.4 0 0.2 6406 12 11.94 12.18 100 11.9 11.9
2018-10-14 06:00:00 0 0.4 0.1 0.5 6396 12.37 12.18 12.66 100 12.3 12.1
2018-10-14 07:00:00 0 0.4 0 0.2 6386 12.71 12.58 12.93 100 12.6 12.5
2018-10-14 08:00:00 0 0.4 0.1 0.8 6386 12.81 12.71 13.02 100 12.7 12.7
2018-10-14 09:00:00 34 0.2 0 0.8 6474 12.93 12.6 13.24 100 12.8 12.6
2018-10-14 10:00:00 64 0.4 0 0 6610 13.55 13.35 13.83 100 13.5 13.3
2018-10-14 11:00:00 45 0.4 0 0.1 6650 13.68 13.54 13.86 100 13.6 13.5
2018-10-14 12:00:00 43 0.4 0 0 6668 13.94 13.72 14.12 100 13.9 13.7
2018-10-14 13:00:00 188 0.4 0 0.1 6884 14.73 14.06 15.55 100 14.6 14
2018-10-14 14:00:00 337 0.2 0 0.1 6894 16.29 14.57 18.25 98.59 16 14.5
2018-10-14 15:00:00 56 0.4 0 0 6748 16.32 15.66 17.69 97.77 15.8 15.6
2018-10-14 16:00:00 176 0.2 0 0.1 6884 17.03 15.98 17.87 89.88 15.1 14.2
2018-10-14 17:00:00 98 0.4 0 0 6816 17.27 17.03 17.46 86.11 14.8 14.4
2018-10-14 18:00:00 41 0.2 0 0 6718 16.17 15.36 17.25 90.05 14.3 14
2018-10-14 19:00:00 0 0.2 0 0.2 6590 14.59 14.09 15.17 99.13 14.3 14
2018-10-14 20:00:00 0 0.4 0 0 6552 13.63 13.18 14.06 100 13.5 13.1
2018-10-14 21:00:00 0 0.2 0 0 6484 13.2 12.9 13.42 100 13.1 12.9
2018-10-14 22:00:00 0 0.2 0 0 6474 12.61 12.32 12.94 100 12.5 12.3
2018-10-14 23:00:00 0 0.2 0 0 6454 12.44 12.32 12.53 100 12.3 12.3
2018-10-15 00:00:00 0 0.4 0 0 6444 12.08 11.95 12.36 100 12 11.9
2018-10-15 01:00:00 0 0.2 0 0 6424 11.86 11.6 12.13 100 11.8 11.6
2018-10-15 02:00:00 0 0.2 0 0 6434 11.72 11.44 11.95 100 11.6 11.4
2018-10-15 03:00:00 0 0.2 0 0 6424 12.27 12.05 12.47 100 12.2 12
2018-10-15 04:00:00 0 0.2 0 0 6416 12.05 11.82 12.25 100 12 11.8
2018-10-15 05:00:00 0 0.2 0 0 6416 11.44 11.23 11.77 100 11.4 11.2
2018-10-15 06:00:00 0 0.2 0 0 6424 11.67 11.21 12.06 100 11.6 11.2
2018-10-15 07:00:00 53 0.2 0 0 6590 12.95 12.16 14.21 100 12.9 12.1
2018-10-15 08:00:00 181 0.4 0 0.1 6904 16.02 14.64 17.7 94.74 15 14.6
2018-10-15 09:00:00 549 0.2 0.3 1.1 6894 19.33 17.82 21.4 75.06 14.6 14.4
2018-10-15 10:00:00 549 0.2 1 1.8 6894 21.2 20.59 22 65.74 14.3 14
2018-10-15 11:00:00 808 0.2 0.7 1.9 6884 23.16 22.05 24.25 54.09 13.1 11.2
2018-10-15 12:00:00 843 0.4 0.8 1.6 6884 24.03 23.11 25.49 48.19 12.1 11.9